Time,TemperatureF,DewpointF,PressureIn,WindDirection,WindDirectionDegrees,WindSpeedMPH,WindSpeedGustMPH,Humidity,HourlyPrecipIn,Conditions,Clouds,dailyrainin,SoftwareType,DateUTC
2013-06-04 00:01:00,76.0,73.0,30.02,NNW,337,1.0,5.0,91,0.00,,,0.00,Rainwise IP-100,2013-06-04 04:01:00,
2013-06-04 00:06:00,76.0,73.3,30.02,NW,315,3.0,3.0,92,0.00,,,0.00,Rainwise IP-100,2013-06-04 04:06:00,
2013-06-04 00:11:00,76.0,73.3,30.02,NW,315,2.0,4.0,92,0.00,,,0.00,Rainwise IP-100,2013-06-04 04:11:00,
2013-06-04 00:16:00,76.0,73.3,30.02,WNW,292,2.0,6.0,92,0.00,,,0.00,Rainwise IP-100,2013-06-04 04:16:00,
2013-06-04 00:21:00,76.0,73.3,30.01,WNW,292,2.0,5.0,92,0.00,,,0.00,Rainwise IP-100,2013-06-04 04:21:00,
2013-06-04 00:26:00,76.0,73.7,30.01,NW,315,2.0,5.0,93,0.00,,,0.00,Rainwise IP-100,2013-06-04 04:26:00,
2013-06-04 00:31:00,76.0,73.7,30.01,NNW,337,1.0,4.0,93,0.00,,,0.00,Rainwise IP-100,2013-06-04 04:31:00,
2013-06-04 00:37:00,76.0,73.7,30.01,NNW,337,3.0,4.0,93,0.00,,,0.00,Rainwise IP-100,2013-06-04 04:37:00,
2013-06-04 00:42:00,76.0,73.7,30.00,NNW,337,1.0,4.0,93,0.00,,,0.00,Rainwise IP-100,2013-06-04 04:42:00,
2013-06-04 00:47:00,76.0,73.7,30.00,NNW,337,0.0,2.0,93,0.00,,,0.00,Rainwise IP-100,2013-06-04 04:47:00,
2013-06-04 00:52:00,76.0,74.0,30.00,NNW,337,0.0,0.0,94,0.00,,,0.00,Rainwise IP-100,2013-06-04 04:52:00,
2013-06-04 00:57:00,76.0,74.3,30.00,North,360,0.0,0.0,95,0.00,,,0.00,Rainwise IP-100,2013-06-04 04:57:00,
2013-06-04 01:02:00,76.0,74.3,30.00,NNE,22,4.0,4.0,95,0.00,,,0.00,Rainwise IP-100,2013-06-04 05:02:00,
2013-06-04 01:07:00,76.0,74.3,30.00,NE,45,0.0,4.0,95,0.00,,,0.00,Rainwise IP-100,2013-06-04 05:07:00,
2013-06-04 01:13:00,76.0,74.0,30.00,NE,45,0.0,0.0,94,0.00,,,0.00,Rainwise IP-100,2013-06-04 05:13:00,
2013-06-04 01:18:00,76.0,74.0,30.00,NE,45,0.0,0.0,94,0.00,,,0.00,Rainwise IP-100,2013-06-04 05:18:00,
2013-06-04 01:23:00,76.0,74.3,30.00,NE,45,1.0,4.0,95,0.00,,,0.00,Rainwise IP-100,2013-06-04 05:23:00,
2013-06-04 01:28:00,76.0,74.3,30.00,NE,45,2.0,4.0,95,0.00,,,0.00,Rainwise IP-100,2013-06-04 05:28:00,
2013-06-04 01:33:00,76.0,73.0,30.00,South,180,8.0,13.0,91,0.06,,,0.01,Rainwise IP-100,2013-06-04 05:33:00,
2013-06-04 01:38:00,74.0,71.3,30.00,SSW,202,7.0,14.0,91,0.06,,,0.02,Rainwise IP-100,2013-06-04 05:38:00,
2013-06-04 01:43:00,73.0,70.5,30.00,WSW,247,4.0,8.0,91,0.36,,,0.10,Rainwise IP-100,2013-06-04 05:43:00,
2013-06-04 01:48:00,73.0,70.5,29.99,West,270,4.0,7.0,91,0.66,,,0.13,Rainwise IP-100,2013-06-04 05:48:00,
2013-06-04 01:54:00,73.0,70.5,29.98,West,270,3.0,4.0,92,0.18,,,0.14,Rainwise IP-100,2013-06-04 05:54:00,
2013-06-04 01:59:00,72.0,69.7,29.98,West,270,3.0,5.0,92,0.12,,,0.15,Rainwise IP-100,2013-06-04 05:59:00,
2013-06-04 02:04:00,72.0,69.7,29.98,WSW,247,2.0,4.0,92,0.12,,,0.16,Rainwise IP-100,2013-06-04 06:04:00,
2013-06-04 02:09:00,72.0,70.0,29.97,NNW,337,5.0,6.0,94,0.12,,,0.17,Rainwise IP-100,2013-06-04 06:09:00,
2013-06-04 02:14:00,72.0,70.0,29.97,NW,315,4.0,7.0,94,0.12,,,0.18,Rainwise IP-100,2013-06-04 06:14:00,
2013-06-04 02:19:00,72.0,70.0,29.96,NW,315,6.0,7.0,94,0.06,,,0.18,Rainwise IP-100,2013-06-04 06:19:00,
2013-06-04 02:24:00,72.0,70.0,29.96,WNW,292,3.0,7.0,94,0.00,,,0.18,Rainwise IP-100,2013-06-04 06:24:00,
2013-06-04 02:30:00,72.0,70.5,29.96,NW,315,3.0,7.0,95,0.00,,,0.18,Rainwise IP-100,2013-06-04 06:30:00,
2013-06-04 02:35:00,72.0,70.5,29.96,NW,315,5.0,6.0,95,0.06,,,0.19,Rainwise IP-100,2013-06-04 06:35:00,
2013-06-04 02:40:00,72.0,70.5,29.96,NW,315,5.0,7.0,95,0.06,,,0.19,Rainwise IP-100,2013-06-04 06:40:00,
2013-06-04 02:45:00,72.0,71.0,29.96,NNW,337,7.0,9.0,96,0.06,,,0.20,Rainwise IP-100,2013-06-04 06:45:00,
2013-06-04 02:50:00,72.0,71.0,29.96,NW,315,4.0,9.0,96,0.06,,,0.20,Rainwise IP-100,2013-06-04 06:50:00,
2013-06-04 02:55:00,72.0,71.0,29.95,NNW,337,2.0,8.0,96,0.00,,,0.20,Rainwise IP-100,2013-06-04 06:55:00,
2013-06-04 03:00:00,72.0,71.0,29.95,NW,315,7.0,7.0,96,0.00,,,0.20,Rainwise IP-100,2013-06-04 07:00:00,
2013-06-04 03:05:00,72.0,71.0,29.95,NNW,337,3.0,7.0,96,0.00,,,0.20,Rainwise IP-100,2013-06-04 07:05:00,
2013-06-04 03:11:00,72.0,71.0,29.95,North,360,7.0,7.0,96,0.00,,,0.20,Rainwise IP-100,2013-06-04 07:11:00,
2013-06-04 03:16:00,72.0,71.0,29.95,NW,315,3.0,7.0,96,0.00,,,0.20,Rainwise IP-100,2013-06-04 07:16:00,
2013-06-04 03:21:00,72.0,71.0,29.95,NW,315,5.0,6.0,96,0.00,,,0.20,Rainwise IP-100,2013-06-04 07:21:00,
2013-06-04 03:26:00,72.0,71.0,29.95,NW,315,3.0,8.0,96,0.00,,,0.20,Rainwise IP-100,2013-06-04 07:26:00,
2013-06-04 03:31:00,72.0,71.0,29.94,NW,315,5.0,6.0,96,0.00,,,0.20,Rainwise IP-100,2013-06-04 07:31:00,
2013-06-04 03:36:00,72.0,71.0,29.94,NNW,337,5.0,6.0,96,0.00,,,0.20,Rainwise IP-100,2013-06-04 07:36:00,
2013-06-04 03:41:00,72.0,71.0,29.94,North,360,5.0,7.0,96,0.00,,,0.20,Rainwise IP-100,2013-06-04 07:41:00,
2013-06-04 03:47:00,72.0,71.0,29.94,NW,315,3.0,6.0,96,0.00,,,0.20,Rainwise IP-100,2013-06-04 07:47:00,
2013-06-04 03:52:00,72.0,71.0,29.94,NW,315,4.0,6.0,96,0.00,,,0.20,Rainwise IP-100,2013-06-04 07:52:00,
2013-06-04 03:57:00,72.0,71.0,29.94,NW,315,3.0,6.0,96,0.00,,,0.20,Rainwise IP-100,2013-06-04 07:57:00,
2013-06-04 04:02:00,72.0,71.0,29.94,NW,315,2.0,4.0,96,0.00,,,0.20,Rainwise IP-100,2013-06-04 08:02:00,
2013-06-04 04:07:00,72.0,71.0,29.94,NW,315,4.0,4.0,96,0.00,,,0.20,Rainwise IP-100,2013-06-04 08:07:00,
2013-06-04 04:12:00,72.0,71.0,29.95,WNW,292,1.0,5.0,96,0.00,,,0.20,Rainwise IP-100,2013-06-04 08:12:00,
2013-06-04 04:17:00,72.0,71.0,29.95,WNW,292,1.0,4.0,96,0.00,,,0.20,Rainwise IP-100,2013-06-04 08:17:00,
2013-06-04 04:22:00,72.0,71.3,29.94,NW,315,3.0,5.0,97,0.00,,,0.20,Rainwise IP-100,2013-06-04 08:22:00,
2013-06-04 04:28:00,72.0,71.3,29.94,NNW,337,6.0,6.0,97,0.00,,,0.20,Rainwise IP-100,2013-06-04 08:28:00,
2013-06-04 04:33:00,72.0,71.3,29.94,NNW,337,2.0,6.0,97,0.00,,,0.20,Rainwise IP-100,2013-06-04 08:33:00,
2013-06-04 04:38:00,72.0,71.3,29.94,NNW,337,1.0,5.0,97,0.00,,,0.20,Rainwise IP-100,2013-06-04 08:38:00,
2013-06-04 04:43:00,72.0,71.0,29.94,NNW,337,1.0,2.0,96,0.00,,,0.20,Rainwise IP-100,2013-06-04 08:43:00,
2013-06-04 04:48:00,73.0,72.0,29.94,NNW,337,0.0,2.0,96,0.00,,,0.20,Rainwise IP-100,2013-06-04 08:48:00,
2013-06-04 04:53:00,72.0,71.0,29.94,NNW,337,1.0,0.0,96,0.00,,,0.20,Rainwise IP-100,2013-06-04 08:53:00,
2013-06-04 04:58:00,72.0,71.0,29.94,NNW,337,0.0,2.0,96,0.00,,,0.20,Rainwise IP-100,2013-06-04 08:58:00,
2013-06-04 05:04:00,72.0,71.0,29.94,NNW,337,0.0,0.0,96,0.00,,,0.20,Rainwise IP-100,2013-06-04 09:04:00,
2013-06-04 05:09:00,73.0,72.3,29.94,NNW,337,1.0,2.0,97,0.00,,,0.20,Rainwise IP-100,2013-06-04 09:09:00,
2013-06-04 05:14:00,73.0,72.3,29.94,NNW,337,0.0,1.0,97,0.00,,,0.20,Rainwise IP-100,2013-06-04 09:14:00,
2013-06-04 05:19:00,73.0,72.3,29.94,NNW,337,0.0,0.0,97,0.00,,,0.20,Rainwise IP-100,2013-06-04 09:19:00,
2013-06-04 05:24:00,73.0,72.3,29.94,NNW,337,0.0,0.0,97,0.00,,,0.20,Rainwise IP-100,2013-06-04 09:24:00,
2013-06-04 05:29:00,73.0,72.3,29.94,NNW,337,0.0,0.0,97,0.00,,,0.20,Rainwise IP-100,2013-06-04 09:29:00,
2013-06-04 05:34:00,73.0,72.3,29.94,NNW,337,0.0,0.0,97,0.00,,,0.20,Rainwise IP-100,2013-06-04 09:34:00,
2013-06-04 05:39:00,73.0,72.3,29.94,NNW,337,0.0,0.0,97,0.00,,,0.20,Rainwise IP-100,2013-06-04 09:39:00,
2013-06-04 05:45:00,73.0,72.3,29.94,NNW,337,0.0,0.0,97,0.00,,,0.20,Rainwise IP-100,2013-06-04 09:45:00,
2013-06-04 05:50:00,73.0,72.3,29.94,NNW,337,0.0,0.0,97,0.00,,,0.20,Rainwise IP-100,2013-06-04 09:50:00,
2013-06-04 05:55:00,73.0,72.3,29.94,NNW,337,0.0,0.0,97,0.00,,,0.20,Rainwise IP-100,2013-06-04 09:55:00,
2013-06-04 06:00:00,73.0,72.3,29.94,NNW,337,0.0,0.0,97,0.00,,,0.20,Rainwise IP-100,2013-06-04 10:00:00,
2013-06-04 06:05:00,73.0,72.3,29.94,NNW,337,0.0,0.0,97,0.00,,,0.20,Rainwise IP-100,2013-06-04 10:05:00,
2013-06-04 06:10:00,73.0,72.3,29.94,NNW,337,0.0,0.0,97,0.00,,,0.20,Rainwise IP-100,2013-06-04 10:10:00,
2013-06-04 06:15:00,73.0,72.3,29.94,NNW,337,0.0,0.0,97,0.00,,,0.20,Rainwise IP-100,2013-06-04 10:15:00,
2013-06-04 06:21:00,73.0,72.3,29.94,NNW,337,0.0,0.0,97,0.00,,,0.20,Rainwise IP-100,2013-06-04 10:21:00,
2013-06-04 06:26:00,73.0,72.3,29.94,NNW,337,0.0,0.0,97,0.00,,,0.20,Rainwise IP-100,2013-06-04 10:26:00,
2013-06-04 06:31:00,73.0,72.3,29.94,NNW,337,0.0,0.0,97,0.00,,,0.20,Rainwise IP-100,2013-06-04 10:31:00,
2013-06-04 06:36:00,73.0,72.3,29.94,NNW,337,0.0,0.0,97,0.00,,,0.20,Rainwise IP-100,2013-06-04 10:36:00,
2013-06-04 06:41:00,73.0,72.3,29.94,NNW,337,0.0,0.0,97,0.00,,,0.20,Rainwise IP-100,2013-06-04 10:41:00,
2013-06-04 06:46:00,73.0,72.3,29.95,NNW,337,0.0,0.0,97,0.00,,,0.20,Rainwise IP-100,2013-06-04 10:46:00,
2013-06-04 06:51:00,73.0,72.3,29.95,NNW,337,0.0,0.0,97,0.00,,,0.20,Rainwise IP-100,2013-06-04 10:51:00,
2013-06-04 06:56:00,73.0,72.3,29.95,NNW,337,0.0,0.0,97,0.00,,,0.20,Rainwise IP-100,2013-06-04 10:56:00,
2013-06-04 07:02:00,74.0,73.0,29.95,NNW,337,0.0,0.0,97,0.00,,,0.20,Rainwise IP-100,2013-06-04 11:02:00,
2013-06-04 07:07:00,74.0,73.0,29.95,NNW,337,0.0,0.0,97,0.00,,,0.20,Rainwise IP-100,2013-06-04 11:07:00,
2013-06-04 07:12:00,74.0,73.0,29.95,NNW,337,0.0,0.0,97,0.00,,,0.20,Rainwise IP-100,2013-06-04 11:12:00,
2013-06-04 07:17:00,74.0,73.0,29.96,NNW,337,0.0,0.0,97,0.00,,,0.20,Rainwise IP-100,2013-06-04 11:17:00,
2013-06-04 07:22:00,74.0,73.0,29.96,NNW,337,0.0,0.0,97,0.00,,,0.20,Rainwise IP-100,2013-06-04 11:22:00,
2013-06-04 07:27:00,74.0,73.0,29.96,NNW,337,0.0,0.0,97,0.00,,,0.20,Rainwise IP-100,2013-06-04 11:27:00,
2013-06-04 07:32:00,74.0,73.0,29.96,NNW,337,0.0,0.0,97,0.00,,,0.20,Rainwise IP-100,2013-06-04 11:32:00,
2013-06-04 07:38:00,75.0,74.3,29.96,NNW,337,0.0,0.0,98,0.00,,,0.20,Rainwise IP-100,2013-06-04 11:38:00,
2013-06-04 07:43:00,75.0,74.0,29.96,NNW,337,0.0,0.0,97,0.00,,,0.20,Rainwise IP-100,2013-06-04 11:43:00,
2013-06-04 07:48:00,75.0,74.0,29.97,NNW,337,0.0,0.0,97,0.00,,,0.20,Rainwise IP-100,2013-06-04 11:48:00,
2013-06-04 07:53:00,75.0,74.0,29.97,NNW,337,0.0,0.0,97,0.00,,,0.20,Rainwise IP-100,2013-06-04 11:53:00,
2013-06-04 07:58:00,76.0,75.0,29.97,NNW,337,0.0,0.0,98,0.00,,,0.20,Rainwise IP-100,2013-06-04 11:58:00,
2013-06-04 08:03:00,76.0,75.0,29.97,NNW,337,0.0,0.0,98,0.00,,,0.20,Rainwise IP-100,2013-06-04 12:03:00,
2013-06-04 08:08:00,76.0,75.0,29.98,NNW,337,0.0,0.0,98,0.00,,,0.20,Rainwise IP-100,2013-06-04 12:08:00,
2013-06-04 08:13:00,76.0,75.0,29.98,NNW,337,0.0,0.0,98,0.00,,,0.20,Rainwise IP-100,2013-06-04 12:13:00,
2013-06-04 08:19:00,77.0,76.5,29.98,East,90,2.0,2.0,98,0.00,,,0.20,Rainwise IP-100,2013-06-04 12:19:00,
2013-06-04 08:24:00,76.0,75.0,29.98,East,90,1.0,3.0,98,0.00,,,0.20,Rainwise IP-100,2013-06-04 12:24:00,
2013-06-04 08:29:00,76.0,75.0,29.99,East,90,1.0,2.0,98,0.00,,,0.20,Rainwise IP-100,2013-06-04 12:29:00,
2013-06-04 08:34:00,76.0,75.5,29.99,East,90,3.0,6.0,99,0.00,,,0.20,Rainwise IP-100,2013-06-04 12:34:00,
2013-06-04 08:39:00,76.0,76.0,29.99,ENE,67,4.0,6.0,100,0.00,,,0.20,Rainwise IP-100,2013-06-04 12:39:00,
2013-06-04 08:44:00,76.0,76.0,29.99,ENE,67,2.0,5.0,100,0.00,,,0.20,Rainwise IP-100,2013-06-04 12:44:00,
2013-06-04 08:49:00,76.0,76.0,29.99,ENE,67,2.0,4.0,100,0.00,,,0.20,Rainwise IP-100,2013-06-04 12:49:00,
2013-06-04 08:55:00,77.0,76.5,30.00,NE,45,2.0,6.0,98,0.00,,,0.20,Rainwise IP-100,2013-06-04 12:55:00,
2013-06-04 09:00:00,77.0,76.5,30.00,NE,45,5.0,5.0,98,0.00,,,0.20,Rainwise IP-100,2013-06-04 13:00:00,
2013-06-04 09:05:00,77.0,76.3,30.00,NE,45,3.0,5.0,97,0.00,,,0.20,Rainwise IP-100,2013-06-04 13:05:00,
2013-06-04 09:10:00,77.0,76.0,30.00,NE,45,1.0,4.0,96,0.00,,,0.20,Rainwise IP-100,2013-06-04 13:10:00,
2013-06-04 09:15:00,77.0,75.5,30.01,NE,45,0.0,3.0,95,0.00,,,0.20,Rainwise IP-100,2013-06-04 13:15:00,
2013-06-04 09:20:00,77.0,75.5,30.01,NE,45,2.0,2.0,95,0.00,,,0.20,Rainwise IP-100,2013-06-04 13:20:00,
2013-06-04 09:25:00,77.0,75.0,30.02,NE,45,1.0,3.0,94,0.00,,,0.20,Rainwise IP-100,2013-06-04 13:25:00,
2013-06-04 09:30:00,78.0,76.3,30.02,NE,45,0.0,2.0,94,0.00,,,0.20,Rainwise IP-100,2013-06-04 13:30:00,
2013-06-04 09:36:00,78.0,75.5,30.02,NE,45,2.0,3.0,92,0.00,,,0.20,Rainwise IP-100,2013-06-04 13:36:00,
2013-06-04 09:41:00,78.0,75.5,30.02,NE,45,2.0,4.0,92,0.00,,,0.20,Rainwise IP-100,2013-06-04 13:41:00,
2013-06-04 09:46:00,78.0,75.0,30.03,NE,45,2.0,4.0,91,0.06,,,0.21,Rainwise IP-100,2013-06-04 13:46:00,
2013-06-04 09:51:00,78.0,75.0,30.03,NE,45,1.0,4.0,91,0.06,,,0.21,Rainwise IP-100,2013-06-04 13:51:00,
2013-06-04 09:56:00,78.0,74.7,30.03,NE,45,3.0,3.0,90,0.00,,,0.21,Rainwise IP-100,2013-06-04 13:56:00,
2013-06-04 10:01:00,78.0,74.7,30.04,NE,45,4.0,5.0,90,0.00,,,0.21,Rainwise IP-100,2013-06-04 14:01:00,
2013-06-04 10:06:00,78.0,74.7,30.04,NE,45,3.0,5.0,90,0.00,,,0.21,Rainwise IP-100,2013-06-04 14:06:00,
2013-06-04 10:12:00,78.0,74.3,30.04,NE,45,2.0,6.0,89,0.00,,,0.21,Rainwise IP-100,2013-06-04 14:12:00,
2013-06-04 10:17:00,78.0,74.7,30.04,NE,45,4.0,6.0,90,0.00,,,0.21,Rainwise IP-100,2013-06-04 14:17:00,
2013-06-04 10:22:00,78.0,74.3,30.04,NE,45,4.0,5.0,89,0.00,,,0.21,Rainwise IP-100,2013-06-04 14:22:00,
2013-06-04 10:27:00,78.0,74.3,30.04,NE,45,4.0,5.0,89,0.00,,,0.21,Rainwise IP-100,2013-06-04 14:27:00,
2013-06-04 10:32:00,78.0,74.7,30.04,NE,45,4.0,5.0,90,0.00,,,0.22,Rainwise IP-100,2013-06-04 14:32:00,
2013-06-04 10:37:00,79.0,76.0,30.04,NE,45,3.0,6.0,90,0.06,,,0.22,Rainwise IP-100,2013-06-04 14:37:00,
2013-06-04 10:42:00,79.0,76.0,30.04,NE,45,4.0,6.0,90,0.06,,,0.22,Rainwise IP-100,2013-06-04 14:42:00,
2013-06-04 10:47:00,79.0,76.0,30.04,NE,45,6.0,6.0,90,0.00,,,0.22,Rainwise IP-100,2013-06-04 14:47:00,
2013-06-04 10:53:00,79.0,76.0,30.04,NE,45,3.0,6.0,90,0.00,,,0.22,Rainwise IP-100,2013-06-04 14:53:00,
2013-06-04 10:58:00,79.0,76.0,30.04,NE,45,2.0,6.0,90,0.00,,,0.22,Rainwise IP-100,2013-06-04 14:58:00,
2013-06-04 11:03:00,79.0,76.0,30.04,NE,45,3.0,6.0,90,0.00,,,0.22,Rainwise IP-100,2013-06-04 15:03:00,
2013-06-04 11:08:00,79.0,75.0,30.05,NE,45,7.0,7.0,88,0.00,,,0.22,Rainwise IP-100,2013-06-04 15:08:00,
2013-06-04 11:13:00,80.0,76.0,30.05,NE,45,6.0,7.0,87,0.00,,,0.22,Rainwise IP-100,2013-06-04 15:13:00,
2013-06-04 11:18:00,80.0,76.0,30.05,NE,45,6.0,8.0,87,0.00,,,0.22,Rainwise IP-100,2013-06-04 15:18:00,
2013-06-04 11:23:00,80.0,76.0,30.05,NE,45,8.0,8.0,87,0.00,,,0.22,Rainwise IP-100,2013-06-04 15:23:00,
2013-06-04 11:29:00,79.0,74.7,30.05,NE,45,6.0,8.0,87,0.00,,,0.22,Rainwise IP-100,2013-06-04 15:29:00,
2013-06-04 11:34:00,79.0,75.0,30.05,NE,45,5.0,7.0,88,0.00,,,0.22,Rainwise IP-100,2013-06-04 15:34:00,
2013-06-04 11:39:00,79.0,75.0,30.05,East,90,6.0,10.0,88,0.00,,,0.22,Rainwise IP-100,2013-06-04 15:39:00,
2013-06-04 11:44:00,78.0,73.0,30.04,NE,45,2.0,13.0,85,0.00,,,0.22,Rainwise IP-100,2013-06-04 15:44:00,
2013-06-04 11:49:00,78.0,73.0,30.04,East,90,5.0,10.0,85,0.00,,,0.22,Rainwise IP-100,2013-06-04 15:49:00,
2013-06-04 11:54:00,78.0,72.7,30.04,NE,45,9.0,13.0,84,0.00,,,0.22,Rainwise IP-100,2013-06-04 15:54:00,
2013-06-04 11:59:00,78.0,72.7,30.04,East,90,9.0,12.0,84,0.00,,,0.22,Rainwise IP-100,2013-06-04 15:59:00,
2013-06-04 12:04:00,79.0,72.7,30.04,ENE,67,9.0,11.0,81,0.00,,,0.22,Rainwise IP-100,2013-06-04 16:04:00,
2013-06-04 12:10:00,79.0,72.0,30.04,ENE,67,6.0,11.0,79,0.00,,,0.22,Rainwise IP-100,2013-06-04 16:10:00,
2013-06-04 12:15:00,80.0,72.3,30.04,ESE,112,3.0,10.0,78,0.00,,,0.22,Rainwise IP-100,2013-06-04 16:15:00,
2013-06-04 12:20:00,81.0,72.0,30.04,ESE,112,1.0,8.0,74,0.00,,,0.22,Rainwise IP-100,2013-06-04 16:20:00,
2013-06-04 12:25:00,82.0,71.0,30.05,South,180,6.0,7.0,69,0.00,,,0.22,Rainwise IP-100,2013-06-04 16:25:00,
2013-06-04 12:30:00,83.0,71.0,30.05,NE,45,3.0,6.0,67,0.00,,,0.22,Rainwise IP-100,2013-06-04 16:30:00,
2013-06-04 12:35:00,84.0,72.0,30.05,East,90,6.0,7.0,67,0.00,,,0.22,Rainwise IP-100,2013-06-04 16:35:00,
2013-06-04 12:40:00,84.0,72.7,30.06,SE,135,2.0,9.0,69,0.00,,,0.22,Rainwise IP-100,2013-06-04 16:40:00,
2013-06-04 12:46:00,84.0,72.0,30.05,East,90,3.0,6.0,67,0.00,,,0.22,Rainwise IP-100,2013-06-04 16:46:00,
2013-06-04 12:51:00,84.0,70.0,30.05,ENE,67,5.0,7.0,63,0.00,,,0.22,Rainwise IP-100,2013-06-04 16:51:00,
2013-06-04 12:56:00,84.0,70.0,30.05,East,90,5.0,7.0,63,0.00,,,0.22,Rainwise IP-100,2013-06-04 16:56:00,
2013-06-04 13:01:00,84.0,69.7,30.05,East,90,1.0,7.0,62,0.00,,,0.22,Rainwise IP-100,2013-06-04 17:01:00,
2013-06-04 13:06:00,85.0,72.0,30.05,NE,45,5.0,10.0,65,0.00,,,0.22,Rainwise IP-100,2013-06-04 17:06:00,
2013-06-04 13:11:00,84.0,71.7,30.05,SE,135,4.0,8.0,66,0.00,,,0.22,Rainwise IP-100,2013-06-04 17:11:00,
2013-06-04 13:16:00,84.0,71.3,30.05,ESE,112,2.0,7.0,65,0.00,,,0.22,Rainwise IP-100,2013-06-04 17:16:00,
2013-06-04 13:21:00,84.0,71.0,30.05,East,90,4.0,7.0,64,0.00,,,0.22,Rainwise IP-100,2013-06-04 17:21:00,
2013-06-04 13:27:00,84.0,71.3,30.05,East,90,4.0,7.0,65,0.00,,,0.22,Rainwise IP-100,2013-06-04 17:27:00,
2013-06-04 13:32:00,84.0,71.0,30.05,NE,45,5.0,9.0,64,0.00,,,0.22,Rainwise IP-100,2013-06-04 17:32:00,
2013-06-04 13:37:00,84.0,70.0,30.05,East,90,6.0,8.0,63,0.00,,,0.22,Rainwise IP-100,2013-06-04 17:37:00,
2013-06-04 13:42:00,84.0,71.7,30.05,East,90,4.0,7.0,66,0.00,,,0.22,Rainwise IP-100,2013-06-04 17:42:00,
2013-06-04 13:47:00,84.0,72.0,30.05,East,90,6.0,6.0,67,0.00,,,0.22,Rainwise IP-100,2013-06-04 17:47:00,
2013-06-04 13:52:00,84.0,72.0,30.04,East,90,4.0,7.0,67,0.00,,,0.22,Rainwise IP-100,2013-06-04 17:52:00,
2013-06-04 13:57:00,84.0,72.3,30.04,East,90,4.0,6.0,68,0.00,,,0.22,Rainwise IP-100,2013-06-04 17:57:00,
2013-06-04 14:03:00,84.0,73.3,30.04,NE,45,6.0,7.0,70,0.00,,,0.22,Rainwise IP-100,2013-06-04 18:03:00,
2013-06-04 14:08:00,83.0,72.7,30.04,East,90,4.0,6.0,71,0.00,,,0.22,Rainwise IP-100,2013-06-04 18:08:00,
2013-06-04 14:13:00,83.0,72.7,30.04,ESE,112,5.0,7.0,71,0.00,,,0.22,Rainwise IP-100,2013-06-04 18:13:00,
2013-06-04 14:18:00,83.0,72.7,30.03,East,90,3.0,7.0,71,0.00,,,0.22,Rainwise IP-100,2013-06-04 18:18:00,
2013-06-04 14:23:00,83.0,72.0,30.03,East,90,3.0,7.0,69,0.00,,,0.22,Rainwise IP-100,2013-06-04 18:23:00,
2013-06-04 14:28:00,83.0,72.7,30.03,East,90,3.0,7.0,71,0.00,,,0.22,Rainwise IP-100,2013-06-04 18:28:00,
2013-06-04 14:33:00,83.0,72.7,30.02,ENE,67,4.0,7.0,71,0.00,,,0.22,Rainwise IP-100,2013-06-04 18:33:00,
2013-06-04 14:38:00,83.0,72.7,30.02,East,90,3.0,7.0,71,0.00,,,0.22,Rainwise IP-100,2013-06-04 18:38:00,
2013-06-04 14:44:00,83.0,72.3,30.02,ENE,67,6.0,9.0,70,0.00,,,0.22,Rainwise IP-100,2013-06-04 18:44:00,
2013-06-04 14:49:00,83.0,72.7,30.02,East,90,4.0,7.0,71,0.00,,,0.22,Rainwise IP-100,2013-06-04 18:49:00,
2013-06-04 14:54:00,83.0,72.7,30.01,ENE,67,5.0,7.0,71,0.00,,,0.22,Rainwise IP-100,2013-06-04 18:54:00,
2013-06-04 14:59:00,82.0,72.0,30.01,East,90,5.0,8.0,72,0.00,,,0.22,Rainwise IP-100,2013-06-04 18:59:00,
2013-06-04 15:04:00,82.0,72.7,30.01,East,90,2.0,8.0,74,0.00,,,0.22,Rainwise IP-100,2013-06-04 19:04:00,
2013-06-04 15:09:00,83.0,73.7,30.01,NE,45,3.0,7.0,74,0.00,,,0.22,Rainwise IP-100,2013-06-04 19:09:00,
2013-06-04 15:14:00,83.0,73.3,30.01,SE,135,2.0,6.0,73,0.00,,,0.22,Rainwise IP-100,2013-06-04 19:14:00,
2013-06-04 15:20:00,83.0,73.0,30.01,ESE,112,1.0,6.0,72,0.00,,,0.22,Rainwise IP-100,2013-06-04 19:20:00,
2013-06-04 15:25:00,83.0,73.0,30.01,East,90,3.0,7.0,72,0.00,,,0.22,Rainwise IP-100,2013-06-04 19:25:00,
2013-06-04 15:30:00,83.0,72.7,30.01,East,90,5.0,7.0,71,0.00,,,0.22,Rainwise IP-100,2013-06-04 19:30:00,
2013-06-04 15:35:00,83.0,72.7,30.01,East,90,3.0,6.0,71,0.00,,,0.22,Rainwise IP-100,2013-06-04 19:35:00,
2013-06-04 15:40:00,83.0,72.3,30.01,East,90,4.0,9.0,70,0.00,,,0.22,Rainwise IP-100,2013-06-04 19:40:00,
2013-06-04 15:45:00,83.0,72.7,30.01,ESE,112,0.0,6.0,71,0.00,,,0.22,Rainwise IP-100,2013-06-04 19:45:00,
2013-06-04 15:50:00,83.0,72.7,30.01,ESE,112,3.0,8.0,71,0.00,,,0.22,Rainwise IP-100,2013-06-04 19:50:00,
2013-06-04 15:55:00,83.0,72.7,30.01,East,90,2.0,7.0,71,0.00,,,0.22,Rainwise IP-100,2013-06-04 19:55:00,
2013-06-04 16:01:00,83.0,72.7,30.01,NE,45,5.0,7.0,71,0.00,,,0.22,Rainwise IP-100,2013-06-04 20:01:00,
2013-06-04 16:06:00,83.0,72.7,30.01,NE,45,4.0,7.0,71,0.00,,,0.22,Rainwise IP-100,2013-06-04 20:06:00,
2013-06-04 16:11:00,83.0,73.0,30.01,SE,135,0.0,5.0,72,0.00,,,0.22,Rainwise IP-100,2013-06-04 20:11:00,
2013-06-04 16:16:00,83.0,73.7,30.01,ENE,67,4.0,6.0,74,0.00,,,0.22,Rainwise IP-100,2013-06-04 20:16:00,
2013-06-04 16:21:00,82.0,72.7,30.01,East,90,6.0,9.0,74,0.00,,,0.22,Rainwise IP-100,2013-06-04 20:21:00,
2013-06-04 16:26:00,82.0,73.7,30.01,East,90,0.0,7.0,76,0.00,,,0.22,Rainwise IP-100,2013-06-04 20:26:00,
2013-06-04 16:31:00,82.0,73.7,30.01,ENE,67,2.0,5.0,76,0.00,,,0.22,Rainwise IP-100,2013-06-04 20:31:00,
2013-06-04 16:37:00,82.0,74.3,30.01,East,90,0.0,6.0,78,0.00,,,0.22,Rainwise IP-100,2013-06-04 20:37:00,
2013-06-04 16:42:00,82.0,74.7,30.00,East,90,1.0,6.0,79,0.00,,,0.22,Rainwise IP-100,2013-06-04 20:42:00,
2013-06-04 16:47:00,81.0,74.3,30.00,East,90,5.0,6.0,80,0.00,,,0.22,Rainwise IP-100,2013-06-04 20:47:00,
2013-06-04 16:52:00,81.0,74.7,30.00,East,90,6.0,6.0,81,0.00,,,0.22,Rainwise IP-100,2013-06-04 20:52:00,
2013-06-04 16:57:00,81.0,75.5,30.00,East,90,2.0,9.0,83,0.00,,,0.22,Rainwise IP-100,2013-06-04 20:57:00,
2013-06-04 17:02:00,80.0,74.0,30.00,SE,135,1.0,7.0,83,0.00,,,0.22,Rainwise IP-100,2013-06-04 21:02:00,
2013-06-04 17:07:00,80.0,74.7,30.00,ESE,112,4.0,10.0,84,0.00,,,0.22,Rainwise IP-100,2013-06-04 21:07:00,
2013-06-04 17:12:00,80.0,75.0,30.00,SE,135,4.0,10.0,85,0.00,,,0.22,Rainwise IP-100,2013-06-04 21:12:00,
2013-06-04 17:17:00,80.0,75.0,30.00,ENE,67,1.0,8.0,85,0.00,,,0.22,Rainwise IP-100,2013-06-04 21:17:00,
2013-06-04 17:23:00,80.0,75.0,29.99,East,90,2.0,7.0,85,0.00,,,0.22,Rainwise IP-100,2013-06-04 21:23:00,
2013-06-04 17:28:00,80.0,75.0,29.99,ESE,112,1.0,6.0,85,0.00,,,0.22,Rainwise IP-100,2013-06-04 21:28:00,
2013-06-04 17:33:00,80.0,74.7,29.99,East,90,7.0,10.0,84,0.00,,,0.22,Rainwise IP-100,2013-06-04 21:33:00,
2013-06-04 17:38:00,80.0,74.0,29.98,East,90,6.0,11.0,83,0.00,,,0.22,Rainwise IP-100,2013-06-04 21:38:00,
2013-06-04 17:43:00,80.0,74.0,29.98,East,90,6.0,10.0,83,0.00,,,0.22,Rainwise IP-100,2013-06-04 21:43:00,
2013-06-04 17:48:00,80.0,74.0,29.98,ESE,112,3.0,9.0,83,0.00,,,0.22,Rainwise IP-100,2013-06-04 21:48:00,
2013-06-04 17:53:00,80.0,74.0,29.98,East,90,8.0,8.0,83,0.00,,,0.22,Rainwise IP-100,2013-06-04 21:53:00,
2013-06-04 17:59:00,80.0,73.3,29.98,East,90,6.0,11.0,81,0.00,,,0.22,Rainwise IP-100,2013-06-04 21:59:00,
2013-06-04 18:04:00,80.0,73.3,29.98,NE,45,5.0,8.0,81,0.00,,,0.22,Rainwise IP-100,2013-06-04 22:04:00,
2013-06-04 18:09:00,80.0,73.3,29.98,ENE,67,4.0,11.0,81,0.00,,,0.22,Rainwise IP-100,2013-06-04 22:09:00,
2013-06-04 18:14:00,80.0,73.3,29.98,East,90,5.0,9.0,81,0.00,,,0.22,Rainwise IP-100,2013-06-04 22:14:00,
2013-06-04 18:19:00,80.0,74.0,29.98,ENE,67,7.0,13.0,83,0.00,,,0.22,Rainwise IP-100,2013-06-04 22:19:00,
2013-06-04 18:24:00,80.0,74.7,29.98,East,90,3.0,13.0,84,0.00,,,0.22,Rainwise IP-100,2013-06-04 22:24:00,
2013-06-04 18:29:00,80.0,75.0,29.98,ENE,67,5.0,9.0,85,0.00,,,0.22,Rainwise IP-100,2013-06-04 22:29:00,
2013-06-04 18:35:00,80.0,75.0,29.99,East,90,5.0,11.0,85,0.00,,,0.22,Rainwise IP-100,2013-06-04 22:35:00,
2013-06-04 18:40:00,79.0,74.0,29.99,East,90,6.0,10.0,85,0.00,,,0.22,Rainwise IP-100,2013-06-04 22:40:00,
2013-06-04 18:45:00,79.0,74.0,29.98,ENE,67,7.0,9.0,85,0.00,,,0.22,Rainwise IP-100,2013-06-04 22:45:00,
2013-06-04 18:50:00,79.0,74.0,29.98,East,90,2.0,9.0,85,0.00,,,0.22,Rainwise IP-100,2013-06-04 22:50:00,
2013-06-04 18:55:00,79.0,74.0,29.99,East,90,5.0,8.0,85,0.00,,,0.22,Rainwise IP-100,2013-06-04 22:55:00,
2013-06-04 19:00:00,79.0,74.0,29.99,East,90,5.0,10.0,85,0.00,,,0.22,Rainwise IP-100,2013-06-04 23:00:00,
2013-06-04 19:05:00,79.0,74.3,29.99,ENE,67,7.0,10.0,86,0.00,,,0.22,Rainwise IP-100,2013-06-04 23:05:00,
2013-06-04 19:10:00,79.0,74.0,29.99,East,90,4.0,10.0,85,0.00,,,0.22,Rainwise IP-100,2013-06-04 23:10:00,
2013-06-04 19:15:00,79.0,74.0,30.00,NE,45,6.0,10.0,85,0.00,,,0.22,Rainwise IP-100,2013-06-04 23:15:00,
2013-06-04 19:21:00,79.0,74.3,30.00,NE,45,7.0,10.0,86,0.00,,,0.22,Rainwise IP-100,2013-06-04 23:21:00,
2013-06-04 19:26:00,79.0,74.7,30.00,East,90,6.0,9.0,87,0.00,,,0.22,Rainwise IP-100,2013-06-04 23:26:00,
2013-06-04 19:31:00,79.0,74.7,30.00,East,90,5.0,10.0,87,0.00,,,0.22,Rainwise IP-100,2013-06-04 23:31:00,
2013-06-04 19:36:00,79.0,74.7,30.00,ENE,67,7.0,9.0,87,0.00,,,0.22,Rainwise IP-100,2013-06-04 23:36:00,
2013-06-04 19:41:00,79.0,74.0,30.00,East,90,6.0,8.0,85,0.00,,,0.22,Rainwise IP-100,2013-06-04 23:41:00,
2013-06-04 19:46:00,79.0,74.0,30.01,ENE,67,4.0,9.0,85,0.00,,,0.22,Rainwise IP-100,2013-06-04 23:46:00,
2013-06-04 19:51:00,79.0,73.7,30.01,ENE,67,7.0,9.0,84,0.00,,,0.22,Rainwise IP-100,2013-06-04 23:51:00,
2013-06-04 19:56:00,79.0,74.0,30.01,ENE,67,5.0,9.0,85,0.00,,,0.22,Rainwise IP-100,2013-06-04 23:56:00,
2013-06-04 20:02:00,79.0,74.3,30.01,ENE,67,5.0,9.0,86,0.00,,,0.22,Rainwise IP-100,2013-06-05 00:02:00,
2013-06-04 20:07:00,79.0,74.3,30.01,NE,45,6.0,9.0,86,0.00,,,0.22,Rainwise IP-100,2013-06-05 00:07:00,
2013-06-04 20:12:00,79.0,74.0,30.01,ENE,67,6.0,9.0,85,0.00,,,0.22,Rainwise IP-100,2013-06-05 00:12:00,
2013-06-04 20:17:00,79.0,74.0,30.01,NE,45,7.0,9.0,85,0.00,,,0.22,Rainwise IP-100,2013-06-05 00:17:00,
2013-06-04 20:22:00,79.0,73.7,30.01,NE,45,9.0,9.0,84,0.00,,,0.22,Rainwise IP-100,2013-06-05 00:22:00,
2013-06-04 20:27:00,79.0,73.7,30.01,East,90,7.0,10.0,84,0.00,,,0.22,Rainwise IP-100,2013-06-05 00:27:00,
2013-06-04 20:32:00,79.0,73.3,30.01,East,90,4.0,10.0,83,0.00,,,0.22,Rainwise IP-100,2013-06-05 00:32:00,
2013-06-04 20:38:00,79.0,73.7,30.01,East,90,7.0,9.0,84,0.00,,,0.22,Rainwise IP-100,2013-06-05 00:38:00,
2013-06-04 20:43:00,79.0,73.0,30.01,East,90,6.0,10.0,82,0.00,,,0.22,Rainwise IP-100,2013-06-05 00:43:00,
2013-06-04 20:48:00,79.0,73.0,30.01,ENE,67,7.0,12.0,82,0.00,,,0.22,Rainwise IP-100,2013-06-05 00:48:00,
2013-06-04 20:53:00,79.0,72.0,30.01,East,90,7.0,10.0,79,0.00,,,0.22,Rainwise IP-100,2013-06-05 00:53:00,
2013-06-04 20:58:00,79.0,72.3,30.01,East,90,6.0,12.0,80,0.00,,,0.22,Rainwise IP-100,2013-06-05 00:58:00,
2013-06-04 21:03:00,79.0,72.0,30.01,ENE,67,8.0,10.0,79,0.00,,,0.22,Rainwise IP-100,2013-06-05 01:03:00,
2013-06-04 21:08:00,79.0,71.7,30.01,East,90,8.0,12.0,78,0.00,,,0.22,Rainwise IP-100,2013-06-05 01:08:00,
2013-06-04 21:14:00,79.0,71.3,30.02,ENE,67,7.0,12.0,77,0.00,,,0.22,Rainwise IP-100,2013-06-05 01:14:00,
2013-06-04 21:19:00,80.0,72.7,30.01,ENE,67,6.0,12.0,79,0.00,,,0.22,Rainwise IP-100,2013-06-05 01:19:00,
2013-06-04 21:24:00,80.0,72.7,30.02,NE,45,9.0,10.0,79,0.00,,,0.22,Rainwise IP-100,2013-06-05 01:24:00,
2013-06-04 21:29:00,80.0,72.7,30.02,NE,45,9.0,12.0,79,0.00,,,0.22,Rainwise IP-100,2013-06-05 01:29:00,
2013-06-04 21:34:00,79.0,72.7,30.02,NE,45,7.0,13.0,81,0.00,,,0.22,Rainwise IP-100,2013-06-05 01:34:00,
2013-06-04 21:39:00,79.0,73.0,30.02,NE,45,7.0,11.0,82,0.00,,,0.22,Rainwise IP-100,2013-06-05 01:39:00,
2013-06-04 21:44:00,79.0,73.0,30.02,NE,45,9.0,12.0,82,0.00,,,0.22,Rainwise IP-100,2013-06-05 01:44:00,
2013-06-04 21:49:00,79.0,72.7,30.02,NE,45,9.0,13.0,81,0.00,,,0.22,Rainwise IP-100,2013-06-05 01:49:00,
2013-06-04 21:55:00,79.0,72.7,30.02,ENE,67,9.0,10.0,81,0.00,,,0.22,Rainwise IP-100,2013-06-05 01:55:00,
2013-06-04 22:00:00,79.0,72.7,30.02,East,90,5.0,10.0,81,0.00,,,0.22,Rainwise IP-100,2013-06-05 02:00:00,
2013-06-04 22:05:00,79.0,72.7,30.02,East,90,4.0,12.0,81,0.00,,,0.22,Rainwise IP-100,2013-06-05 02:05:00,
2013-06-04 22:10:00,79.0,72.3,30.02,East,90,5.0,9.0,80,0.00,,,0.22,Rainwise IP-100,2013-06-05 02:10:00,
2013-06-04 22:15:00,79.0,72.0,30.02,East,90,6.0,12.0,79,0.00,,,0.22,Rainwise IP-100,2013-06-05 02:15:00,
2013-06-04 22:20:00,79.0,72.0,30.02,East,90,6.0,10.0,79,0.00,,,0.22,Rainwise IP-100,2013-06-05 02:20:00,
2013-06-04 22:25:00,79.0,72.0,30.02,NE,45,5.0,11.0,79,0.00,,,0.22,Rainwise IP-100,2013-06-05 02:25:00,
2013-06-04 22:31:00,79.0,72.3,30.02,East,90,6.0,14.0,80,0.00,,,0.22,Rainwise IP-100,2013-06-05 02:31:00,
2013-06-04 22:36:00,79.0,72.3,30.02,East,90,6.0,9.0,80,0.00,,,0.22,Rainwise IP-100,2013-06-05 02:36:00,
2013-06-04 22:41:00,79.0,72.7,30.02,East,90,8.0,9.0,81,0.00,,,0.22,Rainwise IP-100,2013-06-05 02:41:00,
2013-06-04 22:46:00,79.0,73.0,30.02,East,90,7.0,10.0,82,0.00,,,0.22,Rainwise IP-100,2013-06-05 02:46:00,
2013-06-04 22:51:00,79.0,73.3,30.02,East,90,10.0,10.0,83,0.00,,,0.22,Rainwise IP-100,2013-06-05 02:51:00,
2013-06-04 22:56:00,79.0,73.7,30.02,East,90,8.0,13.0,84,0.00,,,0.22,Rainwise IP-100,2013-06-05 02:56:00,
2013-06-04 23:01:00,79.0,73.3,30.02,NE,45,5.0,10.0,83,0.00,,,0.22,Rainwise IP-100,2013-06-05 03:01:00,
2013-06-04 23:06:00,79.0,73.3,30.02,East,90,7.0,10.0,83,0.00,,,0.22,Rainwise IP-100,2013-06-05 03:06:00,
2013-06-04 23:12:00,79.0,73.7,30.02,East,90,6.0,15.0,84,0.00,,,0.22,Rainwise IP-100,2013-06-05 03:12:00,
2013-06-04 23:17:00,79.0,73.7,30.02,ESE,112,10.0,10.0,84,0.00,,,0.22,Rainwise IP-100,2013-06-05 03:17:00,
2013-06-04 23:22:00,79.0,73.3,30.02,East,90,7.0,12.0,83,0.00,,,0.22,Rainwise IP-100,2013-06-05 03:22:00,
2013-06-04 23:27:00,79.0,73.0,30.02,East,90,6.0,11.0,82,0.00,,,0.22,Rainwise IP-100,2013-06-05 03:27:00,
2013-06-04 23:32:00,79.0,73.3,30.02,NE,45,3.0,9.0,83,0.00,,,0.22,Rainwise IP-100,2013-06-05 03:32:00,
2013-06-04 23:37:00,79.0,73.0,30.01,East,90,7.0,9.0,82,0.00,,,0.22,Rainwise IP-100,2013-06-05 03:37:00,
2013-06-04 23:42:00,79.0,73.0,30.02,East,90,3.0,10.0,82,0.00,,,0.22,Rainwise IP-100,2013-06-05 03:42:00,
2013-06-04 23:48:00,79.0,73.0,30.02,North,360,9.0,10.0,82,0.00,,,0.22,Rainwise IP-100,2013-06-05 03:48:00,
2013-06-04 23:53:00,79.0,72.7,30.02,East,90,3.0,11.0,81,0.00,,,0.22,Rainwise IP-100,2013-06-05 03:53:00,
2013-06-04 23:58:00,79.0,73.0,30.02,NE,45,1.0,10.0,82,0.00,,,0.22,Rainwise IP-100,2013-06-05 03:58:00,